sensor_id;sensor_type;location;lat;lon;timestamp;P1;durP1;ratioP1;P2;durP2;ratioP2
9140;SDS011;46330;50.822;7.126;2024-01-15T00:00:55;18.63;;;8.27;;
9140;SDS011;46330;50.822;7.126;2024-01-15T00:03:23;24.05;;;8.15;;
9140;SDS011;46330;50.822;7.126;2024-01-15T00:05:51;20.30;;;7.90;;
9140;SDS011;46330;50.822;7.126;2024-01-15T00:08:20;15.55;;;7.82;;
9140;SDS011;46330;50.822;7.126;2024-01-15T00:10:48;15.32;;;7.70;;
9140;SDS011;46330;50.822;7.126;2024-01-15T00:13:16;17.77;;;7.45;;
9140;SDS011;46330;50.822;7.126;2024-01-15T00:15:44;18.48;;;7.30;;
9140;SDS011;46330;50.822;7.126;2024-01-15T00:18:12;17.40;;;8.13;;
9140;SDS011;46330;50.822;7.126;2024-01-15T00:20:40;18.17;;;7.50;;
9140;SDS011;46330;50.822;7.126;2024-01-15T00:23:08;17.52;;;7.68;;
9140;SDS011;46330;50.822;7.126;2024-01-15T00:25:37;11.82;;;6.57;;
9140;SDS011;46330;50.822;7.126;2024-01-15T00:28:05;19.52;;;7.03;;
9140;SDS011;46330;50.822;7.126;2024-01-15T00:30:33;15.77;;;6.80;;
9140;SDS011;46330;50.822;7.126;2024-01-15T00:33:01;17.38;;;7.45;;
9140;SDS011;46330;50.822;7.126;2024-01-15T00:35:30;20.02;;;6.90;;
9140;SDS011;46330;50.822;7.126;2024-01-15T00:37:57;15.65;;;6.30;;
9140;SDS011;46330;50.822;7.126;2024-01-15T00:40:25;14.90;;;6.95;;
9140;SDS011;46330;50.822;7.126;2024-01-15T00:42:55;16.73;;;6.75;;
9140;SDS011;46330;50.822;7.126;2024-01-15T00:45:23;17.20;;;7.43;;
9140;SDS011;46330;50.822;7.126;2024-01-15T00:47:51;16.65;;;7.18;;
9140;SDS011;46330;50.822;7.126;2024-01-15T00:50:19;16.15;;;7.15;;
9140;SDS011;46330;50.822;7.126;2024-01-15T00:52:47;17.67;;;7.97;;
9140;SDS011;46330;50.822;7.126;2024-01-15T00:55:15;16.10;;;6.97;;
9140;SDS011;46330;50.822;7.126;2024-01-15T00:57:43;18.88;;;8.15;;
9140;SDS011;46330;50.822;7.126;2024-01-15T01:00:13;15.23;;;6.78;;
9140;SDS011;46330;50.822;7.126;2024-01-15T01:02:41;16.00;;;7.45;;
9140;SDS011;46330;50.822;7.126;2024-01-15T01:05:09;15.75;;;7.05;;
9140;SDS011;46330;50.822;7.126;2024-01-15T01:07:37;12.43;;;6.50;;
9140;SDS011;46330;50.822;7.126;2024-01-15T01:10:06;17.20;;;7.82;;
9140;SDS011;46330;50.822;7.126;2024-01-15T01:12:34;16.70;;;7.95;;
9140;SDS011;46330;50.822;7.126;2024-01-15T01:15:02;13.80;;;6.43;;
9140;SDS011;46330;50.822;7.126;2024-01-15T01:17:33;17.25;;;7.68;;
9140;SDS011;46330;50.822;7.126;2024-01-15T01:20:01;16.13;;;7.40;;
9140;SDS011;46330;50.822;7.126;2024-01-15T01:22:31;15.02;;;6.75;;
9140;SDS011;46330;50.822;7.126;2024-01-15T01:24:59;18.52;;;8.00;;
9140;SDS011;46330;50.822;7.126;2024-01-15T01:27:27;10.27;;;5.80;;
9140;SDS011;46330;50.822;7.126;2024-01-15T01:29:55;14.23;;;6.63;;
9140;SDS011;46330;50.822;7.126;2024-01-15T01:32:23;17.70;;;8.00;;
9140;SDS011;46330;50.822;7.126;2024-01-15T01:34:52;19.05;;;7.72;;
9140;SDS011;46330;50.822;7.126;2024-01-15T01:37:20;18.25;;;7.65;;
9140;SDS011;46330;50.822;7.126;2024-01-15T01:39:48;16.35;;;7.40;;
9140;SDS011;46330;50.822;7.126;2024-01-15T01:42:16;15.23;;;7.78;;
9140;SDS011;46330;50.822;7.126;2024-01-15T01:44:44;21.20;;;7.90;;
9140;SDS011;46330;50.822;7.126;2024-01-15T01:47:13;18.00;;;7.95;;
9140;SDS011;46330;50.822;7.126;2024-01-15T01:49:42;16.92;;;7.05;;
9140;SDS011;46330;50.822;7.126;2024-01-15T01:52:12;23.90;;;8.63;;
9140;SDS011;46330;50.822;7.126;2024-01-15T01:54:41;17.13;;;8.07;;
9140;SDS011;46330;50.822;7.126;2024-01-15T01:57:09;18.33;;;7.93;;
9140;SDS011;46330;50.822;7.126;2024-01-15T01:59:39;14.07;;;7.32;;
9140;SDS011;46330;50.822;7.126;2024-01-15T02:02:08;19.05;;;8.70;;
9140;SDS011;46330;50.822;7.126;2024-01-15T02:04:36;14.63;;;7.43;;
9140;SDS011;46330;50.822;7.126;2024-01-15T02:07:05;19.17;;;8.88;;
9140;SDS011;46330;50.822;7.126;2024-01-15T02:09:34;19.00;;;8.38;;
9140;SDS011;46330;50.822;7.126;2024-01-15T02:12:02;19.02;;;8.05;;
9140;SDS011;46330;50.822;7.126;2024-01-15T02:14:31;25.38;;;9.23;;
9140;SDS011;46330;50.822;7.126;2024-01-15T02:16:59;17.08;;;7.78;;
9140;SDS011;46330;50.822;7.126;2024-01-15T02:19:27;27.42;;;9.82;;
9140;SDS011;46330;50.822;7.126;2024-01-15T02:21:55;19.92;;;8.98;;
9140;SDS011;46330;50.822;7.126;2024-01-15T02:24:25;19.45;;;7.60;;
9140;SDS011;46330;50.822;7.126;2024-01-15T02:26:53;21.05;;;9.00;;
9140;SDS011;46330;50.822;7.126;2024-01-15T02:29:21;16.65;;;8.45;;
9140;SDS011;46330;50.822;7.126;2024-01-15T02:31:50;22.08;;;9.43;;
9140;SDS011;46330;50.822;7.126;2024-01-15T02:34:18;22.50;;;9.63;;
9140;SDS011;46330;50.822;7.126;2024-01-15T02:36:46;18.17;;;8.90;;
9140;SDS011;46330;50.822;7.126;2024-01-15T02:39:14;20.85;;;8.57;;
9140;SDS011;46330;50.822;7.126;2024-01-15T02:41:43;21.23;;;8.90;;
9140;SDS011;46330;50.822;7.126;2024-01-15T02:44:11;23.77;;;7.45;;
9140;SDS011;46330;50.822;7.126;2024-01-15T02:46:39;22.67;;;8.57;;
9140;SDS011;46330;50.822;7.126;2024-01-15T02:49:07;22.50;;;9.13;;
9140;SDS011;46330;50.822;7.126;2024-01-15T02:51:35;21.17;;;9.38;;
9140;SDS011;46330;50.822;7.126;2024-01-15T02:54:03;22.70;;;9.50;;
9140;SDS011;46330;50.822;7.126;2024-01-15T02:56:31;20.27;;;9.07;;
9140;SDS011;46330;50.822;7.126;2024-01-15T02:59:01;15.32;;;7.43;;
9140;SDS011;46330;50.822;7.126;2024-01-15T03:01:29;20.67;;;8.45;;
9140;SDS011;46330;50.822;7.126;2024-01-15T03:03:57;15.70;;;7.13;;
9140;SDS011;46330;50.822;7.126;2024-01-15T03:06:25;22.88;;;9.27;;
9140;SDS011;46330;50.822;7.126;2024-01-15T03:08:53;21.33;;;9.63;;
9140;SDS011;46330;50.822;7.126;2024-01-15T03:11:21;23.98;;;9.93;;
9140;SDS011;46330;50.822;7.126;2024-01-15T03:13:49;21.42;;;9.57;;
9140;SDS011;46330;50.822;7.126;2024-01-15T03:16:18;18.67;;;9.25;;
9140;SDS011;46330;50.822;7.126;2024-01-15T03:18:47;21.00;;;8.93;;
9140;SDS011;46330;50.822;7.126;2024-01-15T03:21:15;18.27;;;8.18;;
9140;SDS011;46330;50.822;7.126;2024-01-15T03:23:43;22.20;;;9.32;;
9140;SDS011;46330;50.822;7.126;2024-01-15T03:26:11;16.77;;;7.93;;
9140;SDS011;46330;50.822;7.126;2024-01-15T03:28:39;22.50;;;9.20;;
9140;SDS011;46330;50.822;7.126;2024-01-15T03:31:07;19.00;;;8.43;;
9140;SDS011;46330;50.822;7.126;2024-01-15T03:33:36;18.63;;;8.05;;
9140;SDS011;46330;50.822;7.126;2024-01-15T03:36:05;17.67;;;7.35;;
9140;SDS011;46330;50.822;7.126;2024-01-15T03:38:33;15.27;;;7.30;;
9140;SDS011;46330;50.822;7.126;2024-01-15T03:41:02;19.45;;;8.93;;
9140;SDS011;46330;50.822;7.126;2024-01-15T03:43:30;20.42;;;8.90;;
9140;SDS011;46330;50.822;7.126;2024-01-15T03:45:58;15.05;;;7.20;;
9140;SDS011;46330;50.822;7.126;2024-01-15T03:48:26;19.05;;;8.68;;
9140;SDS011;46330;50.822;7.126;2024-01-15T03:50:55;16.95;;;8.00;;
9140;SDS011;46330;50.822;7.126;2024-01-15T03:53:23;20.05;;;8.25;;
9140;SDS011;46330;50.822;7.126;2024-01-15T03:55:51;17.27;;;8.50;;
9140;SDS011;46330;50.822;7.126;2024-01-15T03:58:19;14.07;;;7.88;;
9140;SDS011;46330;50.822;7.126;2024-01-15T04:00:47;14.25;;;6.90;;
9140;SDS011;46330;50.822;7.126;2024-01-15T04:03:15;16.10;;;6.55;;
9140;SDS011;46330;50.822;7.126;2024-01-15T04:05:43;12.18;;;6.72;;
9140;SDS011;46330;50.822;7.126;2024-01-15T04:08:13;18.33;;;8.50;;
9140;SDS011;46330;50.822;7.126;2024-01-15T04:10:41;19.90;;;9.07;;
9140;SDS011;46330;50.822;7.126;2024-01-15T04:13:09;18.48;;;8.82;;
9140;SDS011;46330;50.822;7.126;2024-01-15T04:15:37;16.50;;;7.93;;
9140;SDS011;46330;50.822;7.126;2024-01-15T04:18:05;19.75;;;9.10;;
9140;SDS011;46330;50.822;7.126;2024-01-15T04:20:33;19.00;;;8.90;;
9140;SDS011;46330;50.822;7.126;2024-01-15T04:23:01;18.48;;;7.90;;
9140;SDS011;46330;50.822;7.126;2024-01-15T04:25:30;19.52;;;8.55;;
9140;SDS011;46330;50.822;7.126;2024-01-15T04:27:58;17.85;;;8.55;;
9140;SDS011;46330;50.822;7.126;2024-01-15T04:30:26;16.77;;;7.30;;
9140;SDS011;46330;50.822;7.126;2024-01-15T04:32:54;21.10;;;8.98;;
9140;SDS011;46330;50.822;7.126;2024-01-15T04:35:23;17.15;;;8.20;;
9140;SDS011;46330;50.822;7.126;2024-01-15T04:37:51;16.98;;;8.07;;
9140;SDS011;46330;50.822;7.126;2024-01-15T04:40:19;16.63;;;8.25;;
9140;SDS011;46330;50.822;7.126;2024-01-15T04:42:48;16.85;;;8.63;;
9140;SDS011;46330;50.822;7.126;2024-01-15T04:45:16;19.42;;;9.25;;
9140;SDS011;46330;50.822;7.126;2024-01-15T04:47:44;20.52;;;8.80;;
9140;SDS011;46330;50.822;7.126;2024-01-15T04:50:13;23.05;;;8.75;;
9140;SDS011;46330;50.822;7.126;2024-01-15T04:52:40;19.67;;;8.23;;
9140;SDS011;46330;50.822;7.126;2024-01-15T04:55:08;23.42;;;10.82;;
9140;SDS011;46330;50.822;7.126;2024-01-15T04:57:36;18.58;;;7.70;;
9140;SDS011;46330;50.822;7.126;2024-01-15T05:00:06;17.85;;;8.25;;
9140;SDS011;46330;50.822;7.126;2024-01-15T05:02:35;16.90;;;7.60;;
9140;SDS011;46330;50.822;7.126;2024-01-15T05:05:03;15.05;;;7.30;;
9140;SDS011;46330;50.822;7.126;2024-01-15T05:07:31;19.65;;;6.88;;
9140;SDS011;46330;50.822;7.126;2024-01-15T05:09:59;17.52;;;7.95;;
9140;SDS011;46330;50.822;7.126;2024-01-15T05:12:27;14.50;;;7.53;;
9140;SDS011;46330;50.822;7.126;2024-01-15T05:14:55;14.50;;;7.38;;
9140;SDS011;46330;50.822;7.126;2024-01-15T05:17:25;13.93;;;7.20;;
9140;SDS011;46330;50.822;7.126;2024-01-15T05:19:52;16.45;;;7.10;;
9140;SDS011;46330;50.822;7.126;2024-01-15T05:22:20;13.13;;;6.43;;
9140;SDS011;46330;50.822;7.126;2024-01-15T05:24:51;14.48;;;7.20;;
9140;SDS011;46330;50.822;7.126;2024-01-15T05:27:19;18.40;;;7.40;;
9140;SDS011;46330;50.822;7.126;2024-01-15T05:29:47;17.60;;;7.43;;
9140;SDS011;46330;50.822;7.126;2024-01-15T05:32:15;15.10;;;7.35;;
9140;SDS011;46330;50.822;7.126;2024-01-15T05:34:44;14.95;;;8.07;;
9140;SDS011;46330;50.822;7.126;2024-01-15T05:37:12;11.35;;;5.35;;
9140;SDS011;46330;50.822;7.126;2024-01-15T05:39:40;18.45;;;7.72;;
9140;SDS011;46330;50.822;7.126;2024-01-15T05:42:08;16.55;;;7.38;;
9140;SDS011;46330;50.822;7.126;2024-01-15T05:44:36;21.48;;;7.30;;
9140;SDS011;46330;50.822;7.126;2024-01-15T05:47:04;17.33;;;7.60;;
9140;SDS011;46330;50.822;7.126;2024-01-15T05:49:32;19.17;;;8.20;;
9140;SDS011;46330;50.822;7.126;2024-01-15T05:52:01;15.57;;;6.88;;
9140;SDS011;46330;50.822;7.126;2024-01-15T05:54:29;19.90;;;7.60;;
9140;SDS011;46330;50.822;7.126;2024-01-15T05:56:57;15.00;;;7.07;;
9140;SDS011;46330;50.822;7.126;2024-01-15T05:59:25;14.00;;;7.75;;
9140;SDS011;46330;50.822;7.126;2024-01-15T06:01:54;13.80;;;6.13;;
9140;SDS011;46330;50.822;7.126;2024-01-15T06:04:22;16.73;;;8.32;;
9140;SDS011;46330;50.822;7.126;2024-01-15T06:06:51;16.88;;;7.78;;
9140;SDS011;46330;50.822;7.126;2024-01-15T06:09:20;16.65;;;7.68;;
9140;SDS011;46330;50.822;7.126;2024-01-15T06:11:48;11.52;;;6.47;;
9140;SDS011;46330;50.822;7.126;2024-01-15T06:14:16;13.90;;;7.25;;
9140;SDS011;46330;50.822;7.126;2024-01-15T06:16:44;14.27;;;7.47;;
9140;SDS011;46330;50.822;7.126;2024-01-15T06:19:12;12.20;;;6.35;;
9140;SDS011;46330;50.822;7.126;2024-01-15T06:21:40;13.07;;;7.15;;
9140;SDS011;46330;50.822;7.126;2024-01-15T06:24:08;12.13;;;6.57;;
9140;SDS011;46330;50.822;7.126;2024-01-15T06:26:38;16.67;;;8.82;;
9140;SDS011;46330;50.822;7.126;2024-01-15T06:29:06;14.93;;;6.65;;
9140;SDS011;46330;50.822;7.126;2024-01-15T06:31:34;12.38;;;6.68;;
9140;SDS011;46330;50.822;7.126;2024-01-15T06:34:02;12.57;;;6.53;;
9140;SDS011;46330;50.822;7.126;2024-01-15T06:36:31;11.52;;;6.82;;
9140;SDS011;46330;50.822;7.126;2024-01-15T06:38:59;14.85;;;6.53;;
9140;SDS011;46330;50.822;7.126;2024-01-15T06:41:27;15.32;;;6.85;;
9140;SDS011;46330;50.822;7.126;2024-01-15T06:43:56;15.23;;;7.38;;
9140;SDS011;46330;50.822;7.126;2024-01-15T06:46:24;11.90;;;6.88;;
9140;SDS011;46330;50.822;7.126;2024-01-15T06:48:52;13.75;;;7.50;;
9140;SDS011;46330;50.822;7.126;2024-01-15T06:51:20;11.13;;;6.57;;
9140;SDS011;46330;50.822;7.126;2024-01-15T06:53:48;13.68;;;6.95;;
9140;SDS011;46330;50.822;7.126;2024-01-15T06:56:16;13.98;;;7.05;;
9140;SDS011;46330;50.822;7.126;2024-01-15T06:58:44;17.08;;;7.85;;
9140;SDS011;46330;50.822;7.126;2024-01-15T07:01:13;16.40;;;8.10;;
9140;SDS011;46330;50.822;7.126;2024-01-15T07:03:42;14.35;;;7.45;;
9140;SDS011;46330;50.822;7.126;2024-01-15T07:06:10;17.45;;;8.02;;
9140;SDS011;46330;50.822;7.126;2024-01-15T07:08:39;14.98;;;6.72;;
9140;SDS011;46330;50.822;7.126;2024-01-15T07:11:07;18.00;;;8.30;;
9140;SDS011;46330;50.822;7.126;2024-01-15T07:13:36;15.13;;;7.20;;
9140;SDS011;46330;50.822;7.126;2024-01-15T07:16:04;19.98;;;6.18;;
9140;SDS011;46330;50.822;7.126;2024-01-15T07:18:35;14.20;;;8.38;;
9140;SDS011;46330;50.822;7.126;2024-01-15T07:21:03;15.38;;;8.25;;
9140;SDS011;46330;50.822;7.126;2024-01-15T07:23:32;15.35;;;7.93;;
9140;SDS011;46330;50.822;7.126;2024-01-15T07:25:59;13.18;;;6.30;;
9140;SDS011;46330;50.822;7.126;2024-01-15T07:28:28;21.42;;;8.52;;
9140;SDS011;46330;50.822;7.126;2024-01-15T07:30:56;17.83;;;8.75;;
9140;SDS011;46330;50.822;7.126;2024-01-15T07:33:25;16.10;;;8.48;;
9140;SDS011;46330;50.822;7.126;2024-01-15T07:35:55;17.67;;;7.97;;
9140;SDS011;46330;50.822;7.126;2024-01-15T07:38:26;17.67;;;8.75;;
9140;SDS011;46330;50.822;7.126;2024-01-15T07:40:54;17.85;;;8.27;;
9140;SDS011;46330;50.822;7.126;2024-01-15T07:43:22;20.02;;;8.27;;
9140;SDS011;46330;50.822;7.126;2024-01-15T07:45:50;16.95;;;8.52;;
9140;SDS011;46330;50.822;7.126;2024-01-15T07:48:18;10.45;;;6.35;;
9140;SDS011;46330;50.822;7.126;2024-01-15T07:50:47;14.00;;;6.72;;
9140;SDS011;46330;50.822;7.126;2024-01-15T07:53:16;16.23;;;8.10;;
9140;SDS011;46330;50.822;7.126;2024-01-15T07:55:44;14.02;;;7.35;;
9140;SDS011;46330;50.822;7.126;2024-01-15T07:58:12;16.73;;;7.50;;
9140;SDS011;46330;50.822;7.126;2024-01-15T08:00:42;22.10;;;7.45;;
9140;SDS011;46330;50.822;7.126;2024-01-15T08:03:11;15.60;;;7.20;;
9140;SDS011;46330;50.822;7.126;2024-01-15T08:05:39;17.70;;;7.93;;
9140;SDS011;46330;50.822;7.126;2024-01-15T08:08:10;14.88;;;7.60;;
9140;SDS011;46330;50.822;7.126;2024-01-15T08:10:40;18.92;;;7.40;;
9140;SDS011;46330;50.822;7.126;2024-01-15T08:13:08;23.13;;;7.75;;
9140;SDS011;46330;50.822;7.126;2024-01-15T08:15:36;15.25;;;7.38;;
9140;SDS011;46330;50.822;7.126;2024-01-15T08:18:04;19.67;;;7.47;;
9140;SDS011;46330;50.822;7.126;2024-01-15T08:20:32;11.60;;;6.85;;
9140;SDS011;46330;50.822;7.126;2024-01-15T08:23:00;13.07;;;7.30;;
9140;SDS011;46330;50.822;7.126;2024-01-15T08:25:28;16.27;;;7.97;;
9140;SDS011;46330;50.822;7.126;2024-01-15T08:27:58;15.88;;;7.82;;
9140;SDS011;46330;50.822;7.126;2024-01-15T08:30:26;16.10;;;7.47;;
9140;SDS011;46330;50.822;7.126;2024-01-15T08:32:54;16.55;;;7.40;;
9140;SDS011;46330;50.822;7.126;2024-01-15T08:35:33;17.33;;;7.47;;
9140;SDS011;46330;50.822;7.126;2024-01-15T08:38:04;14.18;;;7.10;;
9140;SDS011;46330;50.822;7.126;2024-01-15T08:40:32;17.02;;;7.45;;
9140;SDS011;46330;50.822;7.126;2024-01-15T08:43:01;13.98;;;7.18;;
9140;SDS011;46330;50.822;7.126;2024-01-15T08:45:29;12.23;;;5.75;;
9140;SDS011;46330;50.822;7.126;2024-01-15T08:47:58;14.30;;;7.15;;
9140;SDS011;46330;50.822;7.126;2024-01-15T08:50:26;13.57;;;6.63;;
9140;SDS011;46330;50.822;7.126;2024-01-15T08:52:54;10.68;;;5.80;;
9140;SDS011;46330;50.822;7.126;2024-01-15T08:55:22;13.88;;;6.68;;
9140;SDS011;46330;50.822;7.126;2024-01-15T08:57:50;18.35;;;8.45;;
9140;SDS011;46330;50.822;7.126;2024-01-15T09:00:20;18.17;;;8.05;;
9140;SDS011;46330;50.822;7.126;2024-01-15T09:02:48;16.50;;;7.85;;
9140;SDS011;46330;50.822;7.126;2024-01-15T09:05:16;15.27;;;7.85;;
9140;SDS011;46330;50.822;7.126;2024-01-15T09:07:44;16.58;;;8.23;;
9140;SDS011;46330;50.822;7.126;2024-01-15T09:10:13;15.30;;;7.43;;
9140;SDS011;46330;50.822;7.126;2024-01-15T09:12:41;11.52;;;5.25;;
9140;SDS011;46330;50.822;7.126;2024-01-15T09:15:09;17.55;;;7.20;;
9140;SDS011;46330;50.822;7.126;2024-01-15T09:17:39;16.17;;;7.82;;
9140;SDS011;46330;50.822;7.126;2024-01-15T09:20:07;16.50;;;7.22;;
9140;SDS011;46330;50.822;7.126;2024-01-15T09:22:37;11.60;;;6.32;;
9140;SDS011;46330;50.822;7.126;2024-01-15T09:25:07;20.77;;;7.55;;
9140;SDS011;46330;50.822;7.126;2024-01-15T09:27:36;12.05;;;7.10;;
9140;SDS011;46330;50.822;7.126;2024-01-15T09:30:05;16.77;;;7.72;;
9140;SDS011;46330;50.822;7.126;2024-01-15T09:32:34;12.00;;;6.80;;
9140;SDS011;46330;50.822;7.126;2024-01-15T09:35:04;14.63;;;7.13;;
9140;SDS011;46330;50.822;7.126;2024-01-15T09:37:33;11.40;;;5.82;;
9140;SDS011;46330;50.822;7.126;2024-01-15T09:40:13;11.40;;;6.38;;
9140;SDS011;46330;50.822;7.126;2024-01-15T09:42:43;9.13;;;5.40;;
9140;SDS011;46330;50.822;7.126;2024-01-15T09:45:12;8.82;;;4.70;;
9140;SDS011;46330;50.822;7.126;2024-01-15T09:47:41;7.65;;;4.07;;
9140;SDS011;46330;50.822;7.126;2024-01-15T09:50:13;8.65;;;4.85;;
9140;SDS011;46330;50.822;7.126;2024-01-15T09:52:43;10.07;;;5.38;;
9140;SDS011;46330;50.822;7.126;2024-01-15T09:55:11;9.82;;;5.70;;
9140;SDS011;46330;50.822;7.126;2024-01-15T09:57:40;7.97;;;4.25;;
9140;SDS011;46330;50.822;7.126;2024-01-15T10:00:09;6.45;;;4.25;;
9140;SDS011;46330;50.822;7.126;2024-01-15T10:02:38;9.68;;;5.35;;
9140;SDS011;46330;50.822;7.126;2024-01-15T10:05:07;9.88;;;5.35;;
9140;SDS011;46330;50.822;7.126;2024-01-15T10:07:37;7.22;;;4.57;;
9140;SDS011;46330;50.822;7.126;2024-01-15T10:10:06;8.65;;;4.57;;
9140;SDS011;46330;50.822;7.126;2024-01-15T10:12:35;9.70;;;4.45;;
9140;SDS011;46330;50.822;7.126;2024-01-15T10:15:04;7.55;;;4.05;;
9140;SDS011;46330;50.822;7.126;2024-01-15T10:17:32;10.20;;;4.85;;
9140;SDS011;46330;50.822;7.126;2024-01-15T10:20:00;7.88;;;4.32;;
9140;SDS011;46330;50.822;7.126;2024-01-15T10:22:30;7.47;;;4.25;;
9140;SDS011;46330;50.822;7.126;2024-01-15T10:25:00;8.98;;;3.92;;
9140;SDS011;46330;50.822;7.126;2024-01-15T10:27:29;7.07;;;4.03;;
9140;SDS011;46330;50.822;7.126;2024-01-15T10:29:59;6.20;;;3.90;;
9140;SDS011;46330;50.822;7.126;2024-01-15T10:32:28;7.57;;;4.30;;
9140;SDS011;46330;50.822;7.126;2024-01-15T10:34:57;7.07;;;4.68;;
9140;SDS011;46330;50.822;7.126;2024-01-15T10:37:25;9.00;;;4.40;;
9140;SDS011;46330;50.822;7.126;2024-01-15T10:39:55;7.30;;;4.85;;
9140;SDS011;46330;50.822;7.126;2024-01-15T10:42:25;12.65;;;5.05;;
9140;SDS011;46330;50.822;7.126;2024-01-15T10:44:53;6.95;;;3.65;;
9140;SDS011;46330;50.822;7.126;2024-01-15T10:47:21;10.55;;;4.80;;
9140;SDS011;46330;50.822;7.126;2024-01-15T10:49:50;9.45;;;4.47;;
9140;SDS011;46330;50.822;7.126;2024-01-15T10:52:19;6.22;;;4.05;;
9140;SDS011;46330;50.822;7.126;2024-01-15T10:54:48;8.02;;;4.10;;
9140;SDS011;46330;50.822;7.126;2024-01-15T10:57:17;6.82;;;4.50;;
9140;SDS011;46330;50.822;7.126;2024-01-15T10:59:49;6.97;;;4.30;;
9140;SDS011;46330;50.822;7.126;2024-01-15T11:02:17;4.95;;;3.50;;
9140;SDS011;46330;50.822;7.126;2024-01-15T11:04:46;8.23;;;4.82;;
9140;SDS011;46330;50.822;7.126;2024-01-15T11:07:14;8.85;;;4.75;;
9140;SDS011;46330;50.822;7.126;2024-01-15T11:09:43;5.90;;;4.07;;
9140;SDS011;46330;50.822;7.126;2024-01-15T11:12:13;7.60;;;4.88;;
9140;SDS011;46330;50.822;7.126;2024-01-15T11:14:45;8.95;;;4.93;;
9140;SDS011;46330;50.822;7.126;2024-01-15T11:17:16;5.72;;;3.90;;
9140;SDS011;46330;50.822;7.126;2024-01-15T11:19:45;7.18;;;4.60;;
9140;SDS011;46330;50.822;7.126;2024-01-15T11:25:18;6.85;;;4.40;;
9140;SDS011;46330;50.822;7.126;2024-01-15T11:27:47;7.05;;;4.32;;
9140;SDS011;46330;50.822;7.126;2024-01-15T11:30:19;8.48;;;4.38;;
9140;SDS011;46330;50.822;7.126;2024-01-15T11:32:49;6.60;;;4.85;;
9140;SDS011;46330;50.822;7.126;2024-01-15T11:35:17;6.72;;;4.68;;
9140;SDS011;46330;50.822;7.126;2024-01-15T11:37:58;7.45;;;4.97;;
9140;SDS011;46330;50.822;7.126;2024-01-15T11:40:37;6.57;;;4.60;;
9140;SDS011;46330;50.822;7.126;2024-01-15T11:43:06;7.50;;;5.20;;
9140;SDS011;46330;50.822;7.126;2024-01-15T11:45:36;8.85;;;5.38;;
9140;SDS011;46330;50.822;7.126;2024-01-15T11:48:13;7.68;;;5.30;;
9140;SDS011;46330;50.822;7.126;2024-01-15T11:50:44;10.02;;;6.47;;
9140;SDS011;46330;50.822;7.126;2024-01-15T11:53:18;7.18;;;4.22;;
9140;SDS011;46330;50.822;7.126;2024-01-15T11:55:57;8.57;;;5.45;;
9140;SDS011;46330;50.822;7.126;2024-01-15T11:58:26;8.73;;;5.93;;
9140;SDS011;46330;50.822;7.126;2024-01-15T12:00:54;8.40;;;5.65;;
9140;SDS011;46330;50.822;7.126;2024-01-15T12:03:24;8.05;;;5.20;;
9140;SDS011;46330;50.822;7.126;2024-01-15T12:05:52;10.35;;;6.30;;
9140;SDS011;46330;50.822;7.126;2024-01-15T12:08:21;11.40;;;5.90;;
9140;SDS011;46330;50.822;7.126;2024-01-15T12:10:50;8.02;;;5.95;;
9140;SDS011;46330;50.822;7.126;2024-01-15T12:13:19;10.00;;;4.35;;
9140;SDS011;46330;50.822;7.126;2024-01-15T12:15:48;10.23;;;5.97;;
9140;SDS011;46330;50.822;7.126;2024-01-15T12:18:17;9.73;;;4.95;;
9140;SDS011;46330;50.822;7.126;2024-01-15T12:20:48;8.13;;;5.90;;
9140;SDS011;46330;50.822;7.126;2024-01-15T12:23:16;8.75;;;5.30;;
9140;SDS011;46330;50.822;7.126;2024-01-15T12:25:45;10.27;;;4.70;;
9140;SDS011;46330;50.822;7.126;2024-01-15T12:28:13;9.20;;;5.97;;
9140;SDS011;46330;50.822;7.126;2024-01-15T12:30:46;11.15;;;5.90;;
9140;SDS011;46330;50.822;7.126;2024-01-15T12:33:17;11.73;;;6.13;;
9140;SDS011;46330;50.822;7.126;2024-01-15T12:35:45;12.50;;;5.70;;
9140;SDS011;46330;50.822;7.126;2024-01-15T12:38:14;13.40;;;5.20;;
9140;SDS011;46330;50.822;7.126;2024-01-15T12:40:43;4.93;;;3.42;;
9140;SDS011;46330;50.822;7.126;2024-01-15T12:43:12;8.27;;;4.55;;
9140;SDS011;46330;50.822;7.126;2024-01-15T12:45:40;11.10;;;4.47;;
9140;SDS011;46330;50.822;7.126;2024-01-15T12:48:09;11.45;;;4.60;;
9140;SDS011;46330;50.822;7.126;2024-01-15T12:50:40;9.85;;;4.70;;
9140;SDS011;46330;50.822;7.126;2024-01-15T12:53:10;9.18;;;4.18;;
9140;SDS011;46330;50.822;7.126;2024-01-15T12:55:40;10.75;;;4.72;;
9140;SDS011;46330;50.822;7.126;2024-01-15T12:58:08;7.63;;;3.78;;
9140;SDS011;46330;50.822;7.126;2024-01-15T13:00:36;15.60;;;4.70;;
9140;SDS011;46330;50.822;7.126;2024-01-15T13:03:04;9.13;;;3.55;;
9140;SDS011;46330;50.822;7.126;2024-01-15T13:05:32;16.02;;;3.95;;
9140;SDS011;46330;50.822;7.126;2024-01-15T13:08:03;7.22;;;3.80;;
9140;SDS011;46330;50.822;7.126;2024-01-15T13:10:31;7.00;;;3.22;;
9140;SDS011;46330;50.822;7.126;2024-01-15T13:13:01;9.60;;;4.03;;
9140;SDS011;46330;50.822;7.126;2024-01-15T13:15:29;11.73;;;3.70;;
9140;SDS011;46330;50.822;7.126;2024-01-15T13:17:57;6.90;;;3.67;;
9140;SDS011;46330;50.822;7.126;2024-01-15T13:20:25;11.45;;;4.07;;
9140;SDS011;46330;50.822;7.126;2024-01-15T13:22:54;9.73;;;4.03;;
9140;SDS011;46330;50.822;7.126;2024-01-15T13:25:22;10.45;;;3.75;;
9140;SDS011;46330;50.822;7.126;2024-01-15T13:27:51;17.58;;;7.68;;
9140;SDS011;46330;50.822;7.126;2024-01-15T13:30:20;5.90;;;3.58;;
9140;SDS011;46330;50.822;7.126;2024-01-15T13:32:48;9.10;;;3.10;;
9140;SDS011;46330;50.822;7.126;2024-01-15T13:35:16;11.85;;;3.30;;
9140;SDS011;46330;50.822;7.126;2024-01-15T13:37:44;5.13;;;2.88;;
9140;SDS011;46330;50.822;7.126;2024-01-15T13:40:12;4.32;;;2.80;;
9140;SDS011;46330;50.822;7.126;2024-01-15T13:42:44;5.38;;;2.70;;
9140;SDS011;46330;50.822;7.126;2024-01-15T13:45:13;6.40;;;3.03;;
9140;SDS011;46330;50.822;7.126;2024-01-15T13:47:43;4.68;;;3.58;;
9140;SDS011;46330;50.822;7.126;2024-01-15T13:50:11;5.10;;;3.15;;
9140;SDS011;46330;50.822;7.126;2024-01-15T13:52:39;6.75;;;3.58;;
9140;SDS011;46330;50.822;7.126;2024-01-15T13:55:08;4.18;;;2.67;;
9140;SDS011;46330;50.822;7.126;2024-01-15T13:57:36;4.20;;;2.65;;
9140;SDS011;46330;50.822;7.126;2024-01-15T14:00:05;6.28;;;2.63;;
9140;SDS011;46330;50.822;7.126;2024-01-15T14:02:38;6.82;;;3.33;;
9140;SDS011;46330;50.822;7.126;2024-01-15T14:05:08;11.88;;;3.53;;
9140;SDS011;46330;50.822;7.126;2024-01-15T14:07:39;7.50;;;3.13;;
9140;SDS011;46330;50.822;7.126;2024-01-15T14:10:07;6.10;;;2.63;;
9140;SDS011;46330;50.822;7.126;2024-01-15T14:12:35;6.45;;;2.92;;
9140;SDS011;46330;50.822;7.126;2024-01-15T14:15:04;4.90;;;2.97;;
9140;SDS011;46330;50.822;7.126;2024-01-15T14:17:32;7.53;;;3.30;;
9140;SDS011;46330;50.822;7.126;2024-01-15T14:20:01;8.77;;;3.38;;
9140;SDS011;46330;50.822;7.126;2024-01-15T14:22:33;7.05;;;3.13;;
9140;SDS011;46330;50.822;7.126;2024-01-15T14:25:01;5.45;;;2.33;;
9140;SDS011;46330;50.822;7.126;2024-01-15T14:27:29;3.47;;;2.60;;
9140;SDS011;46330;50.822;7.126;2024-01-15T14:29:59;5.07;;;3.03;;
9140;SDS011;46330;50.822;7.126;2024-01-15T14:32:27;2.92;;;2.25;;
9140;SDS011;46330;50.822;7.126;2024-01-15T14:34:55;5.70;;;2.28;;
9140;SDS011;46330;50.822;7.126;2024-01-15T14:37:24;5.40;;;2.53;;
9140;SDS011;46330;50.822;7.126;2024-01-15T14:39:54;5.78;;;2.50;;
9140;SDS011;46330;50.822;7.126;2024-01-15T14:42:22;4.38;;;1.88;;
9140;SDS011;46330;50.822;7.126;2024-01-15T14:44:50;4.50;;;2.58;;
9140;SDS011;46330;50.822;7.126;2024-01-15T14:47:18;6.68;;;3.00;;
9140;SDS011;46330;50.822;7.126;2024-01-15T14:49:50;3.58;;;2.83;;
9140;SDS011;46330;50.822;7.126;2024-01-15T14:52:18;5.82;;;2.50;;
9140;SDS011;46330;50.822;7.126;2024-01-15T14:54:47;5.07;;;2.40;;
9140;SDS011;46330;50.822;7.126;2024-01-15T14:57:16;2.47;;;1.88;;
9140;SDS011;46330;50.822;7.126;2024-01-15T14:59:45;2.33;;;1.98;;
9140;SDS011;46330;50.822;7.126;2024-01-15T15:02:12;4.97;;;2.45;;